sensor_id;sensor_type;location;lat;lon;timestamp;P1;durP1;ratioP1;P2;durP2;ratioP2
15635;SDS011;7917;50.818;6.972;2024-01-30T00:00:11;23.10;;;15.88;;
15635;SDS011;7917;50.818;6.972;2024-01-30T00:02:38;24.70;;;16.45;;
15635;SDS011;7917;50.818;6.972;2024-01-30T00:05:05;22.67;;;15.88;;
15635;SDS011;7917;50.818;6.972;2024-01-30T00:07:32;24.55;;;16.65;;
15635;SDS011;7917;50.818;6.972;2024-01-30T00:09:59;23.08;;;16.33;;
15635;SDS011;7917;50.818;6.972;2024-01-30T00:12:26;24.45;;;16.42;;
15635;SDS011;7917;50.818;6.972;2024-01-30T00:14:52;22.45;;;16.45;;
15635;SDS011;7917;50.818;6.972;2024-01-30T00:17:19;24.27;;;17.05;;
15635;SDS011;7917;50.818;6.972;2024-01-30T00:19:46;22.40;;;16.83;;
15635;SDS011;7917;50.818;6.972;2024-01-30T00:22:13;22.63;;;15.77;;
15635;SDS011;7917;50.818;6.972;2024-01-30T00:24:40;26.77;;;15.55;;
15635;SDS011;7917;50.818;6.972;2024-01-30T00:27:08;21.55;;;15.07;;
15635;SDS011;7917;50.818;6.972;2024-01-30T00:29:34;21.73;;;16.98;;
15635;SDS011;7917;50.818;6.972;2024-01-30T00:32:01;24.23;;;16.08;;
15635;SDS011;7917;50.818;6.972;2024-01-30T00:34:27;22.88;;;16.08;;
15635;SDS011;7917;50.818;6.972;2024-01-30T00:36:54;23.63;;;16.55;;
15635;SDS011;7917;50.818;6.972;2024-01-30T00:39:21;22.10;;;16.08;;
15635;SDS011;7917;50.818;6.972;2024-01-30T00:41:48;21.98;;;16.05;;
15635;SDS011;7917;50.818;6.972;2024-01-30T00:44:14;23.92;;;15.85;;
15635;SDS011;7917;50.818;6.972;2024-01-30T00:46:41;22.67;;;15.88;;
15635;SDS011;7917;50.818;6.972;2024-01-30T00:49:07;25.45;;;16.60;;
15635;SDS011;7917;50.818;6.972;2024-01-30T00:51:34;21.27;;;15.75;;
15635;SDS011;7917;50.818;6.972;2024-01-30T00:54:00;22.00;;;16.75;;
15635;SDS011;7917;50.818;6.972;2024-01-30T00:56:28;24.60;;;16.38;;
15635;SDS011;7917;50.818;6.972;2024-01-30T00:58:55;23.23;;;15.43;;
15635;SDS011;7917;50.818;6.972;2024-01-30T01:01:22;24.90;;;15.68;;
15635;SDS011;7917;50.818;6.972;2024-01-30T01:03:48;21.15;;;15.77;;
15635;SDS011;7917;50.818;6.972;2024-01-30T01:06:15;19.55;;;14.50;;
15635;SDS011;7917;50.818;6.972;2024-01-30T01:08:42;23.48;;;15.95;;
15635;SDS011;7917;50.818;6.972;2024-01-30T01:11:08;22.77;;;15.70;;
15635;SDS011;7917;50.818;6.972;2024-01-30T01:13:35;26.80;;;16.55;;
15635;SDS011;7917;50.818;6.972;2024-01-30T01:16:02;24.08;;;17.58;;
15635;SDS011;7917;50.818;6.972;2024-01-30T01:18:29;23.38;;;16.00;;
15635;SDS011;7917;50.818;6.972;2024-01-30T01:20:55;20.95;;;15.32;;
15635;SDS011;7917;50.818;6.972;2024-01-30T01:23:21;22.92;;;15.40;;
15635;SDS011;7917;50.818;6.972;2024-01-30T01:25:48;21.67;;;15.63;;
15635;SDS011;7917;50.818;6.972;2024-01-30T01:28:14;22.58;;;14.82;;
15635;SDS011;7917;50.818;6.972;2024-01-30T01:30:42;22.55;;;15.75;;
15635;SDS011;7917;50.818;6.972;2024-01-30T01:33:08;20.63;;;15.05;;
15635;SDS011;7917;50.818;6.972;2024-01-30T01:35:35;21.08;;;13.95;;
15635;SDS011;7917;50.818;6.972;2024-01-30T01:38:01;19.73;;;14.27;;
15635;SDS011;7917;50.818;6.972;2024-01-30T01:40:29;24.50;;;14.50;;
15635;SDS011;7917;50.818;6.972;2024-01-30T01:42:55;25.50;;;15.15;;
15635;SDS011;7917;50.818;6.972;2024-01-30T01:45:22;23.08;;;15.15;;
15635;SDS011;7917;50.818;6.972;2024-01-30T01:47:50;23.80;;;15.15;;
15635;SDS011;7917;50.818;6.972;2024-01-30T01:50:17;21.90;;;14.35;;
15635;SDS011;7917;50.818;6.972;2024-01-30T01:52:45;18.80;;;14.55;;
15635;SDS011;7917;50.818;6.972;2024-01-30T01:55:13;21.95;;;14.75;;
15635;SDS011;7917;50.818;6.972;2024-01-30T01:57:41;21.33;;;14.63;;
15635;SDS011;7917;50.818;6.972;2024-01-30T02:00:08;24.52;;;15.35;;
15635;SDS011;7917;50.818;6.972;2024-01-30T02:02:36;22.95;;;14.25;;
15635;SDS011;7917;50.818;6.972;2024-01-30T02:05:03;18.67;;;14.27;;
15635;SDS011;7917;50.818;6.972;2024-01-30T02:07:30;21.85;;;14.90;;
15635;SDS011;7917;50.818;6.972;2024-01-30T02:09:57;19.45;;;13.82;;
15635;SDS011;7917;50.818;6.972;2024-01-30T02:12:23;18.92;;;14.27;;
15635;SDS011;7917;50.818;6.972;2024-01-30T02:14:49;24.40;;;14.65;;
15635;SDS011;7917;50.818;6.972;2024-01-30T02:17:16;20.33;;;14.25;;
15635;SDS011;7917;50.818;6.972;2024-01-30T02:19:42;19.88;;;13.82;;
15635;SDS011;7917;50.818;6.972;2024-01-30T02:22:10;18.77;;;14.73;;
15635;SDS011;7917;50.818;6.972;2024-01-30T02:24:37;22.17;;;14.65;;
15635;SDS011;7917;50.818;6.972;2024-01-30T02:27:03;20.77;;;15.27;;
15635;SDS011;7917;50.818;6.972;2024-01-30T02:29:30;21.40;;;13.98;;
15635;SDS011;7917;50.818;6.972;2024-01-30T02:31:56;18.52;;;13.65;;
15635;SDS011;7917;50.818;6.972;2024-01-30T02:34:23;22.55;;;14.63;;
15635;SDS011;7917;50.818;6.972;2024-01-30T02:36:49;22.17;;;14.98;;
15635;SDS011;7917;50.818;6.972;2024-01-30T02:39:16;24.63;;;14.82;;
15635;SDS011;7917;50.818;6.972;2024-01-30T02:41:42;21.90;;;14.98;;
15635;SDS011;7917;50.818;6.972;2024-01-30T02:44:09;21.20;;;14.27;;
15635;SDS011;7917;50.818;6.972;2024-01-30T02:46:35;20.77;;;14.88;;
15635;SDS011;7917;50.818;6.972;2024-01-30T02:49:01;20.05;;;13.40;;
15635;SDS011;7917;50.818;6.972;2024-01-30T02:51:28;21.13;;;13.73;;
15635;SDS011;7917;50.818;6.972;2024-01-30T02:53:54;19.10;;;14.07;;
15635;SDS011;7917;50.818;6.972;2024-01-30T02:56:21;18.38;;;14.27;;
15635;SDS011;7917;50.818;6.972;2024-01-30T02:58:48;19.75;;;14.10;;
15635;SDS011;7917;50.818;6.972;2024-01-30T03:01:14;24.17;;;14.48;;
15635;SDS011;7917;50.818;6.972;2024-01-30T03:03:40;19.17;;;14.15;;
15635;SDS011;7917;50.818;6.972;2024-01-30T03:06:08;20.80;;;13.70;;
15635;SDS011;7917;50.818;6.972;2024-01-30T03:08:35;20.77;;;14.23;;
15635;SDS011;7917;50.818;6.972;2024-01-30T03:11:03;19.55;;;13.10;;
15635;SDS011;7917;50.818;6.972;2024-01-30T03:13:31;17.90;;;12.90;;
15635;SDS011;7917;50.818;6.972;2024-01-30T03:15:57;22.17;;;14.10;;
15635;SDS011;7917;50.818;6.972;2024-01-30T03:18:24;20.38;;;13.82;;
15635;SDS011;7917;50.818;6.972;2024-01-30T03:20:50;19.85;;;14.27;;
15635;SDS011;7917;50.818;6.972;2024-01-30T03:23:16;20.85;;;13.50;;
15635;SDS011;7917;50.818;6.972;2024-01-30T03:25:43;21.08;;;14.52;;
15635;SDS011;7917;50.818;6.972;2024-01-30T03:28:09;18.77;;;13.13;;
15635;SDS011;7917;50.818;6.972;2024-01-30T03:30:36;21.02;;;13.18;;
15635;SDS011;7917;50.818;6.972;2024-01-30T03:33:02;20.48;;;13.57;;
15635;SDS011;7917;50.818;6.972;2024-01-30T03:35:29;17.58;;;13.20;;
15635;SDS011;7917;50.818;6.972;2024-01-30T03:37:56;22.85;;;13.68;;
15635;SDS011;7917;50.818;6.972;2024-01-30T03:40:22;21.35;;;13.32;;
15635;SDS011;7917;50.818;6.972;2024-01-30T03:42:48;20.95;;;13.55;;
15635;SDS011;7917;50.818;6.972;2024-01-30T03:45:15;21.52;;;13.55;;
15635;SDS011;7917;50.818;6.972;2024-01-30T03:47:43;14.90;;;12.07;;
15635;SDS011;7917;50.818;6.972;2024-01-30T03:50:10;18.52;;;13.20;;
15635;SDS011;7917;50.818;6.972;2024-01-30T03:52:36;17.77;;;12.82;;
15635;SDS011;7917;50.818;6.972;2024-01-30T03:55:03;16.38;;;13.05;;
15635;SDS011;7917;50.818;6.972;2024-01-30T03:57:30;21.48;;;12.38;;
15635;SDS011;7917;50.818;6.972;2024-01-30T03:59:56;18.67;;;11.50;;
15635;SDS011;7917;50.818;6.972;2024-01-30T04:05:45;18.15;;;12.00;;
15635;SDS011;7917;50.818;6.972;2024-01-30T04:08:12;16.23;;;11.50;;
15635;SDS011;7917;50.818;6.972;2024-01-30T04:10:38;21.33;;;11.43;;
15635;SDS011;7917;50.818;6.972;2024-01-30T04:13:05;14.85;;;10.88;;
15635;SDS011;7917;50.818;6.972;2024-01-30T04:15:32;16.23;;;11.50;;
15635;SDS011;7917;50.818;6.972;2024-01-30T04:17:58;18.25;;;11.35;;
15635;SDS011;7917;50.818;6.972;2024-01-30T04:20:25;17.60;;;10.50;;
15635;SDS011;7917;50.818;6.972;2024-01-30T04:22:52;21.20;;;11.13;;
15635;SDS011;7917;50.818;6.972;2024-01-30T04:25:18;15.40;;;11.80;;
15635;SDS011;7917;50.818;6.972;2024-01-30T04:27:45;16.88;;;11.27;;
15635;SDS011;7917;50.818;6.972;2024-01-30T04:30:12;19.92;;;11.75;;
15635;SDS011;7917;50.818;6.972;2024-01-30T04:32:38;18.70;;;11.30;;
15635;SDS011;7917;50.818;6.972;2024-01-30T04:35:05;13.00;;;10.43;;
15635;SDS011;7917;50.818;6.972;2024-01-30T04:37:32;22.42;;;12.15;;
15635;SDS011;7917;50.818;6.972;2024-01-30T04:39:59;19.42;;;10.77;;
15635;SDS011;7917;50.818;6.972;2024-01-30T04:42:26;15.95;;;10.68;;
15635;SDS011;7917;50.818;6.972;2024-01-30T04:44:52;15.40;;;11.73;;
15635;SDS011;7917;50.818;6.972;2024-01-30T04:47:19;19.67;;;10.68;;
15635;SDS011;7917;50.818;6.972;2024-01-30T04:49:48;17.42;;;10.85;;
15635;SDS011;7917;50.818;6.972;2024-01-30T04:52:15;17.25;;;11.65;;
15635;SDS011;7917;50.818;6.972;2024-01-30T04:54:42;15.57;;;10.88;;
15635;SDS011;7917;50.818;6.972;2024-01-30T04:57:09;16.58;;;11.25;;
15635;SDS011;7917;50.818;6.972;2024-01-30T04:59:37;16.65;;;10.77;;
15635;SDS011;7917;50.818;6.972;2024-01-30T05:02:04;13.30;;;10.70;;
15635;SDS011;7917;50.818;6.972;2024-01-30T05:04:30;15.00;;;10.85;;
15635;SDS011;7917;50.818;6.972;2024-01-30T05:06:57;17.38;;;10.75;;
15635;SDS011;7917;50.818;6.972;2024-01-30T05:09:23;16.73;;;11.05;;
15635;SDS011;7917;50.818;6.972;2024-01-30T05:11:50;18.83;;;11.52;;
15635;SDS011;7917;50.818;6.972;2024-01-30T05:14:17;18.85;;;10.75;;
15635;SDS011;7917;50.818;6.972;2024-01-30T05:16:44;16.15;;;10.77;;
15635;SDS011;7917;50.818;6.972;2024-01-30T05:19:12;15.38;;;11.43;;
15635;SDS011;7917;50.818;6.972;2024-01-30T05:21:39;20.92;;;11.45;;
15635;SDS011;7917;50.818;6.972;2024-01-30T05:24:05;23.25;;;12.32;;
15635;SDS011;7917;50.818;6.972;2024-01-30T05:26:32;17.70;;;12.48;;
15635;SDS011;7917;50.818;6.972;2024-01-30T05:28:59;16.95;;;11.73;;
15635;SDS011;7917;50.818;6.972;2024-01-30T05:31:26;20.00;;;12.48;;
15635;SDS011;7917;50.818;6.972;2024-01-30T05:33:53;16.60;;;11.73;;
15635;SDS011;7917;50.818;6.972;2024-01-30T05:36:20;17.65;;;11.73;;
15635;SDS011;7917;50.818;6.972;2024-01-30T05:38:47;18.83;;;11.40;;
15635;SDS011;7917;50.818;6.972;2024-01-30T05:41:13;18.40;;;11.90;;
15635;SDS011;7917;50.818;6.972;2024-01-30T05:43:40;17.35;;;11.90;;
15635;SDS011;7917;50.818;6.972;2024-01-30T05:46:10;17.73;;;11.73;;
15635;SDS011;7917;50.818;6.972;2024-01-30T05:48:37;17.13;;;11.93;;
15635;SDS011;7917;50.818;6.972;2024-01-30T05:51:04;16.65;;;10.93;;
15635;SDS011;7917;50.818;6.972;2024-01-30T05:53:32;17.83;;;11.77;;
15635;SDS011;7917;50.818;6.972;2024-01-30T05:55:59;18.42;;;11.88;;
15635;SDS011;7917;50.818;6.972;2024-01-30T05:58:26;16.55;;;11.57;;
15635;SDS011;7917;50.818;6.972;2024-01-30T06:00:53;18.92;;;12.38;;
15635;SDS011;7917;50.818;6.972;2024-01-30T06:03:19;17.08;;;11.20;;
15635;SDS011;7917;50.818;6.972;2024-01-30T06:05:46;17.67;;;12.30;;
15635;SDS011;7917;50.818;6.972;2024-01-30T06:08:13;20.13;;;11.48;;
15635;SDS011;7917;50.818;6.972;2024-01-30T06:10:40;17.98;;;12.30;;
15635;SDS011;7917;50.818;6.972;2024-01-30T06:13:06;16.42;;;11.65;;
15635;SDS011;7917;50.818;6.972;2024-01-30T06:15:33;17.50;;;12.18;;
15635;SDS011;7917;50.818;6.972;2024-01-30T06:17:59;19.90;;;12.82;;
15635;SDS011;7917;50.818;6.972;2024-01-30T06:20:26;22.27;;;13.30;;
15635;SDS011;7917;50.818;6.972;2024-01-30T06:22:53;16.33;;;12.45;;
15635;SDS011;7917;50.818;6.972;2024-01-30T06:25:20;17.50;;;11.75;;
15635;SDS011;7917;50.818;6.972;2024-01-30T06:27:46;18.48;;;12.50;;
15635;SDS011;7917;50.818;6.972;2024-01-30T06:30:13;18.23;;;11.90;;
15635;SDS011;7917;50.818;6.972;2024-01-30T06:32:40;19.95;;;12.02;;
15635;SDS011;7917;50.818;6.972;2024-01-30T06:35:06;18.25;;;12.63;;
15635;SDS011;7917;50.818;6.972;2024-01-30T06:37:33;17.83;;;12.70;;
15635;SDS011;7917;50.818;6.972;2024-01-30T06:40:00;20.75;;;13.85;;
15635;SDS011;7917;50.818;6.972;2024-01-30T06:42:27;20.70;;;12.45;;
15635;SDS011;7917;50.818;6.972;2024-01-30T06:44:54;18.00;;;11.80;;
15635;SDS011;7917;50.818;6.972;2024-01-30T06:47:20;20.73;;;12.18;;
15635;SDS011;7917;50.818;6.972;2024-01-30T06:49:47;15.93;;;11.48;;
15635;SDS011;7917;50.818;6.972;2024-01-30T06:52:13;16.92;;;11.70;;
15635;SDS011;7917;50.818;6.972;2024-01-30T06:54:40;18.98;;;11.70;;
15635;SDS011;7917;50.818;6.972;2024-01-30T06:57:07;14.48;;;11.50;;
15635;SDS011;7917;50.818;6.972;2024-01-30T06:59:37;16.48;;;11.73;;
15635;SDS011;7917;50.818;6.972;2024-01-30T07:02:08;15.90;;;11.38;;
15635;SDS011;7917;50.818;6.972;2024-01-30T07:04:41;16.17;;;11.27;;
15635;SDS011;7917;50.818;6.972;2024-01-30T07:07:08;17.80;;;12.40;;
15635;SDS011;7917;50.818;6.972;2024-01-30T07:09:37;16.83;;;12.00;;
15635;SDS011;7917;50.818;6.972;2024-01-30T07:12:04;19.60;;;12.82;;
15635;SDS011;7917;50.818;6.972;2024-01-30T07:14:32;18.25;;;12.43;;
15635;SDS011;7917;50.818;6.972;2024-01-30T07:16:59;15.77;;;11.88;;
15635;SDS011;7917;50.818;6.972;2024-01-30T07:19:26;17.27;;;12.40;;
15635;SDS011;7917;50.818;6.972;2024-01-30T07:21:52;15.65;;;10.68;;
15635;SDS011;7917;50.818;6.972;2024-01-30T07:24:19;17.00;;;11.27;;
15635;SDS011;7917;50.818;6.972;2024-01-30T07:26:46;19.10;;;12.77;;
15635;SDS011;7917;50.818;6.972;2024-01-30T07:29:12;16.90;;;11.18;;
15635;SDS011;7917;50.818;6.972;2024-01-30T07:31:39;16.48;;;11.80;;
15635;SDS011;7917;50.818;6.972;2024-01-30T07:34:06;18.73;;;12.70;;
15635;SDS011;7917;50.818;6.972;2024-01-30T07:36:32;20.25;;;11.50;;
15635;SDS011;7917;50.818;6.972;2024-01-30T07:39:02;21.92;;;11.50;;
15635;SDS011;7917;50.818;6.972;2024-01-30T07:41:29;16.60;;;11.73;;
15635;SDS011;7917;50.818;6.972;2024-01-30T07:43:55;17.73;;;11.48;;
15635;SDS011;7917;50.818;6.972;2024-01-30T07:46:22;16.13;;;11.27;;
15635;SDS011;7917;50.818;6.972;2024-01-30T07:48:49;16.83;;;12.50;;
15635;SDS011;7917;50.818;6.972;2024-01-30T07:51:18;16.92;;;11.95;;
15635;SDS011;7917;50.818;6.972;2024-01-30T07:53:45;20.13;;;11.80;;
15635;SDS011;7917;50.818;6.972;2024-01-30T07:56:14;15.63;;;11.27;;
15635;SDS011;7917;50.818;6.972;2024-01-30T07:58:41;21.13;;;12.27;;
15635;SDS011;7917;50.818;6.972;2024-01-30T08:01:08;20.15;;;11.57;;
15635;SDS011;7917;50.818;6.972;2024-01-30T08:03:34;16.48;;;11.25;;
15635;SDS011;7917;50.818;6.972;2024-01-30T08:06:02;16.92;;;10.98;;
15635;SDS011;7917;50.818;6.972;2024-01-30T08:08:29;18.83;;;11.60;;
15635;SDS011;7917;50.818;6.972;2024-01-30T08:10:56;15.20;;;11.63;;
15635;SDS011;7917;50.818;6.972;2024-01-30T08:13:23;12.90;;;10.40;;
15635;SDS011;7917;50.818;6.972;2024-01-30T08:15:49;18.42;;;10.65;;
15635;SDS011;7917;50.818;6.972;2024-01-30T08:18:16;17.35;;;11.35;;
15635;SDS011;7917;50.818;6.972;2024-01-30T08:20:43;19.95;;;11.63;;
15635;SDS011;7917;50.818;6.972;2024-01-30T08:23:10;19.85;;;11.90;;
15635;SDS011;7917;50.818;6.972;2024-01-30T08:25:37;14.88;;;11.10;;
15635;SDS011;7917;50.818;6.972;2024-01-30T08:28:04;17.13;;;11.90;;
15635;SDS011;7917;50.818;6.972;2024-01-30T08:30:30;18.10;;;11.75;;
15635;SDS011;7917;50.818;6.972;2024-01-30T08:32:57;17.02;;;10.73;;
15635;SDS011;7917;50.818;6.972;2024-01-30T08:35:24;20.20;;;10.13;;
15635;SDS011;7917;50.818;6.972;2024-01-30T08:37:51;19.58;;;11.85;;
15635;SDS011;7917;50.818;6.972;2024-01-30T08:40:24;17.92;;;11.25;;
15635;SDS011;7917;50.818;6.972;2024-01-30T08:42:50;16.55;;;11.68;;
15635;SDS011;7917;50.818;6.972;2024-01-30T08:45:17;15.50;;;10.60;;
15635;SDS011;7917;50.818;6.972;2024-01-30T08:47:44;15.82;;;10.90;;
15635;SDS011;7917;50.818;6.972;2024-01-30T08:50:12;17.33;;;10.38;;
15635;SDS011;7917;50.818;6.972;2024-01-30T08:52:38;15.88;;;10.82;;
15635;SDS011;7917;50.818;6.972;2024-01-30T08:55:05;14.57;;;10.93;;
15635;SDS011;7917;50.818;6.972;2024-01-30T08:57:33;18.65;;;11.00;;
15635;SDS011;7917;50.818;6.972;2024-01-30T09:00:00;23.80;;;11.23;;
15635;SDS011;7917;50.818;6.972;2024-01-30T09:02:29;17.25;;;10.40;;
15635;SDS011;7917;50.818;6.972;2024-01-30T09:04:56;17.13;;;11.18;;
15635;SDS011;7917;50.818;6.972;2024-01-30T09:07:23;17.65;;;11.10;;
15635;SDS011;7917;50.818;6.972;2024-01-30T09:09:49;17.15;;;11.63;;
15635;SDS011;7917;50.818;6.972;2024-01-30T09:12:16;18.75;;;13.23;;
15635;SDS011;7917;50.818;6.972;2024-01-30T09:14:43;15.68;;;11.65;;
15635;SDS011;7917;50.818;6.972;2024-01-30T09:17:10;15.55;;;11.55;;
15635;SDS011;7917;50.818;6.972;2024-01-30T09:19:37;15.25;;;11.07;;
15635;SDS011;7917;50.818;6.972;2024-01-30T09:22:04;18.98;;;11.77;;
15635;SDS011;7917;50.818;6.972;2024-01-30T09:24:30;13.77;;;10.52;;
15635;SDS011;7917;50.818;6.972;2024-01-30T09:26:57;17.02;;;11.52;;
15635;SDS011;7917;50.818;6.972;2024-01-30T09:29:23;21.10;;;12.10;;
15635;SDS011;7917;50.818;6.972;2024-01-30T09:31:51;14.60;;;10.80;;
15635;SDS011;7917;50.818;6.972;2024-01-30T09:34:17;17.95;;;10.57;;
15635;SDS011;7917;50.818;6.972;2024-01-30T09:36:44;14.63;;;10.80;;
15635;SDS011;7917;50.818;6.972;2024-01-30T09:39:11;16.15;;;10.10;;
15635;SDS011;7917;50.818;6.972;2024-01-30T09:41:40;15.25;;;9.93;;
15635;SDS011;7917;50.818;6.972;2024-01-30T09:44:14;16.27;;;10.68;;
15635;SDS011;7917;50.818;6.972;2024-01-30T09:46:42;15.75;;;9.32;;
15635;SDS011;7917;50.818;6.972;2024-01-30T09:49:10;15.27;;;9.02;;
15635;SDS011;7917;50.818;6.972;2024-01-30T09:51:36;15.80;;;9.25;;
15635;SDS011;7917;50.818;6.972;2024-01-30T09:54:04;14.98;;;8.73;;
15635;SDS011;7917;50.818;6.972;2024-01-30T09:56:31;13.27;;;9.73;;
15635;SDS011;7917;50.818;6.972;2024-01-30T09:58:57;15.70;;;9.02;;
15635;SDS011;7917;50.818;6.972;2024-01-30T10:01:24;15.43;;;9.40;;
15635;SDS011;7917;50.818;6.972;2024-01-30T10:03:53;16.98;;;9.00;;
15635;SDS011;7917;50.818;6.972;2024-01-30T10:06:22;14.40;;;8.50;;
15635;SDS011;7917;50.818;6.972;2024-01-30T10:08:51;13.27;;;9.23;;
15635;SDS011;7917;50.818;6.972;2024-01-30T10:11:18;11.23;;;8.93;;
15635;SDS011;7917;50.818;6.972;2024-01-30T10:13:44;15.13;;;10.05;;
15635;SDS011;7917;50.818;6.972;2024-01-30T10:16:13;14.68;;;8.65;;
15635;SDS011;7917;50.818;6.972;2024-01-30T10:18:42;14.52;;;8.65;;
15635;SDS011;7917;50.818;6.972;2024-01-30T10:21:11;16.15;;;9.32;;
15635;SDS011;7917;50.818;6.972;2024-01-30T10:23:39;14.52;;;8.52;;
15635;SDS011;7917;50.818;6.972;2024-01-30T10:26:07;16.33;;;11.43;;
15635;SDS011;7917;50.818;6.972;2024-01-30T10:28:34;19.17;;;10.45;;
15635;SDS011;7917;50.818;6.972;2024-01-30T10:31:01;13.88;;;9.30;;
15635;SDS011;7917;50.818;6.972;2024-01-30T10:33:29;15.80;;;9.52;;
15635;SDS011;7917;50.818;6.972;2024-01-30T10:35:56;13.93;;;8.85;;
15635;SDS011;7917;50.818;6.972;2024-01-30T10:38:28;16.30;;;9.63;;
15635;SDS011;7917;50.818;6.972;2024-01-30T10:40:56;17.77;;;9.40;;
15635;SDS011;7917;50.818;6.972;2024-01-30T10:43:23;14.13;;;7.75;;
15635;SDS011;7917;50.818;6.972;2024-01-30T10:45:54;14.02;;;9.23;;
15635;SDS011;7917;50.818;6.972;2024-01-30T10:48:29;16.35;;;8.60;;
15635;SDS011;7917;50.818;6.972;2024-01-30T10:50:58;14.85;;;8.63;;
15635;SDS011;7917;50.818;6.972;2024-01-30T10:53:28;14.23;;;8.40;;
15635;SDS011;7917;50.818;6.972;2024-01-30T10:55:57;17.10;;;9.38;;
15635;SDS011;7917;50.818;6.972;2024-01-30T10:58:25;16.75;;;8.85;;
15635;SDS011;7917;50.818;6.972;2024-01-30T11:00:52;15.60;;;9.18;;
15635;SDS011;7917;50.818;6.972;2024-01-30T11:03:20;13.10;;;9.27;;
15635;SDS011;7917;50.818;6.972;2024-01-30T11:05:49;13.27;;;8.52;;
15635;SDS011;7917;50.818;6.972;2024-01-30T11:08:23;15.50;;;9.00;;
15635;SDS011;7917;50.818;6.972;2024-01-30T11:10:56;14.52;;;9.98;;
15635;SDS011;7917;50.818;6.972;2024-01-30T11:13:26;16.05;;;8.88;;
15635;SDS011;7917;50.818;6.972;2024-01-30T11:15:54;14.85;;;8.57;;
15635;SDS011;7917;50.818;6.972;2024-01-30T11:18:24;13.38;;;9.32;;
15635;SDS011;7917;50.818;6.972;2024-01-30T11:20:51;17.80;;;9.50;;
15635;SDS011;7917;50.818;6.972;2024-01-30T11:23:18;15.23;;;8.95;;
15635;SDS011;7917;50.818;6.972;2024-01-30T11:25:44;17.00;;;9.43;;
15635;SDS011;7917;50.818;6.972;2024-01-30T11:28:13;14.15;;;9.38;;
15635;SDS011;7917;50.818;6.972;2024-01-30T11:30:41;14.50;;;9.90;;
15635;SDS011;7917;50.818;6.972;2024-01-30T11:33:10;15.30;;;9.02;;
15635;SDS011;7917;50.818;6.972;2024-01-30T11:35:38;14.23;;;8.90;;
15635;SDS011;7917;50.818;6.972;2024-01-30T11:38:07;17.02;;;9.15;;
15635;SDS011;7917;50.818;6.972;2024-01-30T11:40:34;15.00;;;9.45;;
15635;SDS011;7917;50.818;6.972;2024-01-30T11:43:03;18.45;;;9.65;;
15635;SDS011;7917;50.818;6.972;2024-01-30T11:45:32;18.05;;;11.30;;
15635;SDS011;7917;50.818;6.972;2024-01-30T11:48:00;17.45;;;9.05;;
15635;SDS011;7917;50.818;6.972;2024-01-30T11:50:28;15.95;;;10.57;;
15635;SDS011;7917;50.818;6.972;2024-01-30T11:52:55;19.70;;;10.48;;
15635;SDS011;7917;50.818;6.972;2024-01-30T11:55:23;15.02;;;9.55;;
15635;SDS011;7917;50.818;6.972;2024-01-30T11:57:50;17.77;;;8.95;;
15635;SDS011;7917;50.818;6.972;2024-01-30T12:00:17;14.65;;;8.80;;
15635;SDS011;7917;50.818;6.972;2024-01-30T12:02:49;15.80;;;8.38;;
15635;SDS011;7917;50.818;6.972;2024-01-30T12:05:20;17.63;;;8.75;;
15635;SDS011;7917;50.818;6.972;2024-01-30T12:07:48;15.43;;;9.38;;
15635;SDS011;7917;50.818;6.972;2024-01-30T12:10:14;16.52;;;9.30;;
15635;SDS011;7917;50.818;6.972;2024-01-30T12:12:43;13.73;;;8.70;;
15635;SDS011;7917;50.818;6.972;2024-01-30T12:15:11;15.70;;;9.05;;
15635;SDS011;7917;50.818;6.972;2024-01-30T12:17:38;14.98;;;9.18;;
15635;SDS011;7917;50.818;6.972;2024-01-30T12:20:07;12.40;;;8.65;;
15635;SDS011;7917;50.818;6.972;2024-01-30T12:22:38;18.42;;;8.65;;
15635;SDS011;7917;50.818;6.972;2024-01-30T12:25:07;17.42;;;9.52;;
15635;SDS011;7917;50.818;6.972;2024-01-30T12:27:35;13.82;;;8.95;;
15635;SDS011;7917;50.818;6.972;2024-01-30T12:30:04;14.60;;;9.75;;
15635;SDS011;7917;50.818;6.972;2024-01-30T12:32:33;15.70;;;8.95;;
15635;SDS011;7917;50.818;6.972;2024-01-30T12:35:01;16.77;;;9.77;;
15635;SDS011;7917;50.818;6.972;2024-01-30T12:37:29;12.60;;;8.77;;
15635;SDS011;7917;50.818;6.972;2024-01-30T12:39:58;15.77;;;9.60;;
15635;SDS011;7917;50.818;6.972;2024-01-30T12:42:26;17.92;;;8.93;;
15635;SDS011;7917;50.818;6.972;2024-01-30T12:44:53;20.25;;;10.07;;
15635;SDS011;7917;50.818;6.972;2024-01-30T12:47:22;12.40;;;9.00;;
15635;SDS011;7917;50.818;6.972;2024-01-30T12:49:49;13.77;;;10.02;;
15635;SDS011;7917;50.818;6.972;2024-01-30T12:52:18;14.18;;;9.68;;
15635;SDS011;7917;50.818;6.972;2024-01-30T12:54:46;14.32;;;10.35;;
15635;SDS011;7917;50.818;6.972;2024-01-30T12:57:13;15.32;;;10.85;;
15635;SDS011;7917;50.818;6.972;2024-01-30T12:59:40;15.85;;;9.20;;
15635;SDS011;7917;50.818;6.972;2024-01-30T13:02:07;16.60;;;10.43;;
15635;SDS011;7917;50.818;6.972;2024-01-30T13:04:34;14.80;;;9.45;;
15635;SDS011;7917;50.818;6.972;2024-01-30T13:07:02;18.83;;;10.68;;
15635;SDS011;7917;50.818;6.972;2024-01-30T13:09:29;15.88;;;9.40;;
15635;SDS011;7917;50.818;6.972;2024-01-30T13:12:00;15.00;;;10.43;;
15635;SDS011;7917;50.818;6.972;2024-01-30T13:14:27;16.60;;;9.73;;
15635;SDS011;7917;50.818;6.972;2024-01-30T13:16:54;18.92;;;9.57;;
15635;SDS011;7917;50.818;6.972;2024-01-30T13:19:21;16.15;;;10.30;;
15635;SDS011;7917;50.818;6.972;2024-01-30T13:21:48;16.13;;;9.50;;
15635;SDS011;7917;50.818;6.972;2024-01-30T13:24:15;13.23;;;9.55;;
15635;SDS011;7917;50.818;6.972;2024-01-30T13:26:42;17.42;;;10.98;;
15635;SDS011;7917;50.818;6.972;2024-01-30T13:29:10;16.65;;;10.70;;
15635;SDS011;7917;50.818;6.972;2024-01-30T13:31:37;13.75;;;9.77;;
15635;SDS011;7917;50.818;6.972;2024-01-30T13:34:04;16.65;;;9.68;;
15635;SDS011;7917;50.818;6.972;2024-01-30T13:36:40;13.27;;;9.55;;
15635;SDS011;7917;50.818;6.972;2024-01-30T13:39:12;16.27;;;10.40;;
15635;SDS011;7917;50.818;6.972;2024-01-30T13:41:44;13.27;;;9.80;;
15635;SDS011;7917;50.818;6.972;2024-01-30T13:44:11;15.68;;;10.52;;
15635;SDS011;7917;50.818;6.972;2024-01-30T13:46:38;17.77;;;9.93;;
15635;SDS011;7917;50.818;6.972;2024-01-30T13:49:05;14.15;;;9.95;;
15635;SDS011;7917;50.818;6.972;2024-01-30T13:51:34;19.65;;;11.65;;
15635;SDS011;7917;50.818;6.972;2024-01-30T13:54:00;18.52;;;12.40;;
15635;SDS011;7917;50.818;6.972;2024-01-30T13:56:27;20.02;;;13.63;;
15635;SDS011;7917;50.818;6.972;2024-01-30T13:59:01;21.33;;;13.07;;
15635;SDS011;7917;50.818;6.972;2024-01-30T14:01:31;17.35;;;12.88;;
15635;SDS011;7917;50.818;6.972;2024-01-30T14:03:58;23.95;;;11.68;;
15635;SDS011;7917;50.818;6.972;2024-01-30T14:06:26;19.85;;;12.50;;
15635;SDS011;7917;50.818;6.972;2024-01-30T14:08:53;20.67;;;11.45;;
15635;SDS011;7917;50.818;6.972;2024-01-30T14:11:21;18.25;;;10.43;;
15635;SDS011;7917;50.818;6.972;2024-01-30T14:13:48;16.45;;;10.02;;
15635;SDS011;7917;50.818;6.972;2024-01-30T14:16:14;14.60;;;9.48;;
15635;SDS011;7917;50.818;6.972;2024-01-30T14:18:43;15.30;;;9.82;;
15635;SDS011;7917;50.818;6.972;2024-01-30T14:21:10;16.02;;;11.07;;
15635;SDS011;7917;50.818;6.972;2024-01-30T14:23:37;15.50;;;10.80;;
15635;SDS011;7917;50.818;6.972;2024-01-30T14:26:04;17.52;;;10.77;;
15635;SDS011;7917;50.818;6.972;2024-01-30T14:28:31;14.85;;;9.82;;
15635;SDS011;7917;50.818;6.972;2024-01-30T14:30:59;17.00;;;9.95;;
15635;SDS011;7917;50.818;6.972;2024-01-30T14:33:29;19.13;;;10.73;;
15635;SDS011;7917;50.818;6.972;2024-01-30T14:35:57;16.48;;;10.48;;
15635;SDS011;7917;50.818;6.972;2024-01-30T14:38:23;20.20;;;10.00;;
15635;SDS011;7917;50.818;6.972;2024-01-30T14:40:50;17.00;;;10.02;;